createdAt,value
2018-11-07T00:00:39.146Z,79.38
2018-11-07T00:03:21.136Z,79.79
2018-11-07T00:06:03.457Z,80.10
2018-11-07T00:08:45.973Z,79.97
2018-11-07T00:11:28.483Z,80.22
2018-11-07T00:14:10.277Z,79.59
2018-11-07T00:16:54.220Z,79.94
2018-11-07T00:19:37.016Z,80.52
2018-11-07T00:22:19.629Z,80.69
2018-11-07T00:25:03.161Z,80.81
2018-11-07T00:27:45.065Z,81.00
2018-11-07T00:30:27.368Z,80.94
2018-11-07T00:33:09.610Z,81.20
2018-11-07T00:35:51.300Z,81.69
2018-11-07T00:38:33.706Z,81.96
2018-11-07T00:41:15.349Z,82.09
2018-11-07T00:43:58.400Z,82.29
2018-11-07T00:46:40.965Z,82.58
2018-11-07T00:49:22.892Z,82.60
2018-11-07T00:52:05.304Z,82.47
2018-11-07T00:54:46.896Z,82.65
2018-11-07T00:57:29.321Z,82.28
2018-11-07T01:00:17.467Z,81.95
2018-11-07T01:02:59.877Z,82.36
2018-11-07T01:05:42.481Z,81.84
2018-11-07T01:08:24.655Z,82.58
2018-11-07T01:11:06.785Z,82.98
2018-11-07T01:13:48.899Z,81.97
2018-11-07T01:16:31.313Z,82.22
2018-11-07T01:19:13.470Z,81.53
2018-11-07T01:21:54.852Z,81.80
2018-11-07T01:24:36.631Z,81.79
2018-11-07T01:27:19.178Z,81.91
2018-11-07T01:30:00.755Z,82.14
2018-11-07T01:32:42.094Z,81.63
2018-11-07T01:35:23.909Z,81.49
2018-11-07T01:38:06.353Z,81.63
2018-11-07T01:40:48.040Z,81.86
2018-11-07T01:43:30.529Z,81.75
2018-11-07T01:46:12.925Z,82.19
2018-11-07T01:48:55.760Z,82.05
2018-11-07T01:51:37.642Z,82.38
2018-11-07T01:54:19.681Z,82.25
2018-11-07T01:57:01.857Z,81.97
2018-11-07T01:59:44.461Z,82.23
2018-11-07T02:02:26.365Z,82.28
2018-11-07T02:05:08.672Z,82.09
2018-11-07T02:07:50.565Z,82.26
2018-11-07T02:10:32.883Z,82.71
2018-11-07T02:13:15.595Z,82.78
2018-11-07T02:15:58.000Z,83.14
2018-11-07T02:18:40.100Z,82.59
2018-11-07T02:21:22.605Z,82.26
2018-11-07T02:24:04.393Z,82.59
2018-11-07T02:26:46.869Z,83.19
2018-11-07T02:29:29.513Z,83.54
2018-11-07T02:32:11.400Z,83.37
2018-11-07T02:34:53.372Z,83.18
2018-11-07T02:37:35.940Z,83.06
2018-11-07T02:40:17.945Z,82.37
2018-11-07T02:43:00.721Z,82.15
2018-11-07T02:45:43.445Z,82.29
2018-11-07T02:48:25.337Z,82.03
2018-11-07T02:51:07.617Z,82.88
2018-11-07T02:53:50.664Z,82.63
2018-11-07T02:56:32.749Z,82.01
2018-11-07T02:59:14.481Z,82.10
2018-11-07T03:01:56.136Z,82.26
2018-11-07T03:04:38.410Z,82.61
2018-11-07T03:07:19.821Z,82.51
2018-11-07T03:10:01.907Z,81.97
2018-11-07T03:12:43.808Z,81.36
2018-11-07T03:15:25.719Z,81.20
2018-11-07T03:18:08.453Z,81.29
2018-11-07T03:20:50.365Z,81.48
2018-11-07T03:23:31.817Z,81.29
2018-11-07T03:26:13.704Z,80.88
2018-11-07T03:28:55.705Z,80.86
2018-11-07T03:31:37.737Z,80.88
2018-11-07T03:34:20.104Z,81.39
2018-11-07T03:37:02.330Z,81.82
2018-11-07T03:39:44.960Z,81.79
2018-11-07T03:42:27.994Z,81.80
2018-11-07T03:45:09.750Z,82.29
2018-11-07T03:47:51.317Z,83.60
2018-11-07T03:50:34.677Z,84.20
2018-11-07T03:53:17.056Z,82.73
2018-11-07T03:55:59.369Z,82.51
2018-11-07T03:58:43.425Z,82.42
2018-11-07T04:01:24.646Z,82.22
2018-11-07T04:04:06.321Z,82.43
2018-11-07T04:06:48.174Z,82.86
2018-11-07T04:09:30.709Z,83.12
2018-11-07T04:12:12.494Z,83.54
2018-11-07T04:14:54.281Z,83.43
2018-11-07T04:17:35.781Z,84.02
2018-11-07T04:20:18.101Z,84.01
2018-11-07T04:22:59.493Z,84.71
2018-11-07T04:25:41.179Z,84.65
2018-11-07T04:28:24.174Z,85.22
2018-11-07T04:31:06.278Z,85.49
2018-11-07T04:33:48.521Z,85.32
2018-11-07T04:36:30.411Z,85.45
2018-11-07T04:39:12.506Z,85.80
2018-11-07T04:41:54.173Z,85.29
2018-11-07T04:44:35.979Z,85.44
2018-11-07T04:47:18.173Z,85.47
2018-11-07T04:49:59.433Z,85.42
2018-11-07T04:52:41.633Z,84.57
2018-11-07T04:55:24.228Z,84.04
2018-11-07T04:58:06.690Z,83.66
2018-11-07T05:00:49.398Z,82.47
2018-11-07T05:03:31.368Z,81.69
2018-11-07T05:06:12.733Z,81.80
2018-11-07T05:08:54.777Z,80.70
2018-11-07T05:11:36.758Z,81.15
2018-11-07T05:14:17.992Z,80.20
2018-11-07T05:17:00.117Z,81.12
2018-11-07T05:19:41.964Z,80.93
2018-11-07T05:22:24.453Z,80.81
2018-11-07T05:25:06.703Z,81.19
2018-11-07T05:27:48.449Z,81.27
2018-11-07T05:30:29.880Z,81.10
2018-11-07T05:33:11.509Z,82.48
2018-11-07T05:35:53.526Z,81.66
2018-11-07T05:38:35.693Z,81.21
2018-11-07T05:41:18.125Z,81.36
2018-11-07T05:44:00.153Z,81.78
2018-11-07T05:46:42.145Z,81.96
2018-11-07T05:49:23.738Z,81.19
2018-11-07T05:52:05.900Z,80.86
2018-11-07T05:54:47.929Z,81.21
2018-11-07T05:57:31.866Z,80.79
2018-11-07T06:00:13.455Z,79.95
2018-11-07T06:02:55.143Z,78.77
2018-11-07T06:05:37.347Z,78.34
2018-11-07T06:08:18.735Z,76.49
2018-11-07T06:11:04.310Z,75.39
2018-11-07T06:13:46.416Z,75.90
2018-11-07T06:16:28.799Z,74.64
2018-11-07T06:19:10.181Z,74.41
2018-11-07T06:21:51.533Z,74.01
2018-11-07T06:24:33.811Z,73.81
2018-11-07T06:27:15.764Z,72.81
2018-11-07T06:29:58.007Z,73.88
2018-11-07T06:32:39.872Z,73.47
2018-11-07T06:35:22.085Z,73.75
2018-11-07T06:38:04.279Z,74.23
2018-11-07T06:40:46.104Z,74.29
2018-11-07T06:43:28.800Z,74.84
2018-11-07T06:46:11.526Z,74.58
2018-11-07T06:48:53.600Z,75.24
2018-11-07T06:51:35.391Z,76.13
2018-11-07T06:54:17.880Z,76.61
2018-11-07T06:57:00.313Z,76.22
2018-11-07T06:59:43.057Z,75.78
2018-11-07T07:02:25.318Z,75.64
2018-11-07T07:05:08.081Z,75.82
2018-11-07T07:07:50.176Z,76.82
2018-11-07T07:10:32.380Z,76.56
2018-11-07T07:13:13.845Z,75.76
2018-11-07T07:15:56.057Z,75.93
2018-11-07T07:18:37.537Z,75.63
2018-11-07T07:21:21.294Z,75.97
2018-11-07T07:24:03.565Z,75.23
2018-11-07T07:26:46.054Z,75.78
2018-11-07T07:29:34.031Z,74.40
2018-11-07T07:32:16.091Z,74.72
2018-11-07T07:34:59.296Z,74.41
2018-11-07T07:37:41.241Z,73.92
2018-11-07T07:40:23.373Z,74.12
2018-11-07T07:43:05.336Z,73.93
2018-11-07T07:45:47.643Z,73.68
2018-11-07T07:48:29.229Z,73.42
2018-11-07T07:51:10.676Z,73.04
2018-11-07T07:53:52.358Z,71.93
2018-11-07T07:56:33.660Z,68.51
2018-11-07T07:59:15.511Z,63.58
2018-11-07T08:01:58.077Z,63.94
2018-11-07T08:04:40.305Z,65.11
2018-11-07T08:07:22.918Z,64.82
2018-11-07T08:10:06.781Z,63.09
2018-11-07T08:12:49.413Z,62.52
2018-11-07T08:15:31.213Z,63.32
2018-11-07T08:18:12.837Z,66.04
2018-11-07T08:20:54.629Z,67.11
2018-11-07T08:23:37.162Z,67.02
2018-11-07T08:26:19.817Z,67.28
2018-11-07T08:29:02.048Z,67.23
2018-11-07T08:31:44.969Z,67.52
2018-11-07T08:34:27.115Z,66.99
2018-11-07T08:37:09.384Z,66.63
2018-11-07T08:39:51.941Z,66.71
2018-11-07T08:42:34.313Z,66.77
2018-11-07T08:45:15.905Z,66.02
2018-11-07T08:47:57.318Z,65.63
2018-11-07T08:50:38.915Z,64.29
2018-11-07T08:53:21.157Z,66.43
2018-11-07T08:56:02.798Z,66.99
2018-11-07T08:58:44.633Z,65.65
2018-11-07T09:01:27.864Z,66.17
2018-11-07T09:04:09.049Z,65.82
2018-11-07T09:06:50.960Z,66.41
2018-11-07T09:09:33.758Z,64.66
2018-11-07T09:12:16.175Z,63.68
2018-11-07T09:14:58.191Z,62.77
2018-11-07T09:17:41.011Z,60.45
2018-11-07T09:20:23.870Z,59.04
2018-11-07T09:23:05.593Z,57.38
2018-11-07T09:25:48.021Z,57.38
2018-11-07T09:28:30.236Z,56.14
2018-11-07T09:31:12.101Z,52.85
2018-11-07T09:33:53.758Z,55.97
2018-11-07T09:36:36.129Z,53.28
2018-11-07T09:39:17.305Z,55.97
2018-11-07T09:41:59.056Z,54.78
2018-11-07T09:44:40.845Z,55.08
2018-11-07T09:47:23.292Z,56.07
2018-11-07T09:50:05.284Z,57.25
2018-11-07T09:52:47.398Z,58.72
2018-11-07T09:55:29.061Z,58.56
2018-11-07T09:58:11.407Z,57.93
2018-11-07T10:00:54.451Z,57.80
2018-11-07T10:03:36.796Z,56.99
2018-11-07T10:06:19.345Z,58.15
2018-11-07T10:09:01.009Z,57.01
2018-11-07T10:11:42.834Z,56.68
2018-11-07T10:14:26.016Z,56.92
2018-11-07T10:17:08.763Z,57.78
2018-11-07T10:19:50.216Z,56.05
2018-11-07T10:22:31.820Z,54.29
2018-11-07T10:25:14.571Z,56.63
2018-11-07T10:27:57.622Z,57.21
2018-11-07T10:30:39.249Z,52.56
2018-11-07T10:33:20.869Z,52.08
2018-11-07T10:36:04.091Z,56.20
2018-11-07T10:38:45.803Z,54.26
2018-11-07T10:41:28.145Z,54.97
2018-11-07T10:44:11.025Z,52.45
2018-11-07T10:46:52.697Z,52.85
2018-11-07T10:49:34.260Z,51.89
2018-11-07T10:52:15.941Z,51.42
2018-11-07T10:54:57.659Z,52.20
2018-11-07T10:57:39.668Z,52.69
2018-11-07T11:00:27.244Z,52.38
2018-11-07T11:03:14.563Z,49.87
2018-11-07T11:05:56.420Z,50.99
2018-11-07T11:08:39.331Z,51.88
2018-11-07T11:11:21.567Z,51.07
2018-11-07T11:14:03.616Z,49.69
2018-11-07T11:16:45.833Z,49.99
2018-11-07T11:19:27.638Z,51.07
2018-11-07T11:22:09.123Z,48.57
2018-11-07T11:24:50.381Z,49.94
2018-11-07T11:27:32.222Z,48.94
2018-11-07T11:30:14.464Z,50.81
2018-11-07T11:32:55.857Z,50.94
2018-11-07T11:35:37.418Z,49.93
2018-11-07T11:38:19.137Z,48.96
2018-11-07T11:41:01.563Z,48.79
2018-11-07T11:43:43.524Z,49.51
2018-11-07T11:46:25.714Z,49.26
2018-11-07T11:49:06.829Z,49.97
2018-11-07T11:51:48.489Z,48.01
2018-11-07T11:54:30.013Z,48.27
2018-11-07T11:57:15.400Z,47.51
2018-11-07T11:59:57.457Z,46.31
2018-11-07T12:02:39.446Z,47.84
2018-11-07T12:05:20.666Z,47.02
2018-11-07T12:08:02.417Z,47.01
2018-11-07T12:10:44.257Z,47.67
2018-11-07T12:13:26.422Z,46.00
2018-11-07T12:16:07.622Z,46.82
2018-11-07T12:18:49.848Z,46.92
2018-11-07T12:21:31.898Z,46.26
2018-11-07T12:24:13.501Z,46.96
2018-11-07T12:26:55.470Z,45.30
2018-11-07T12:29:37.189Z,45.56
2018-11-07T12:32:19.169Z,48.43
2018-11-07T12:35:01.184Z,46.17
2018-11-07T12:37:43.366Z,47.47
2018-11-07T12:40:25.697Z,47.16
2018-11-07T12:43:08.137Z,47.05
2018-11-07T12:45:50.424Z,46.22
2018-11-07T12:48:32.741Z,45.78
2018-11-07T12:51:15.225Z,46.29
2018-11-07T12:53:57.532Z,46.62
2018-11-07T12:56:39.209Z,45.67
2018-11-07T12:59:21.537Z,44.69
2018-11-07T13:02:02.907Z,45.63
2018-11-07T13:04:44.546Z,45.94
2018-11-07T13:07:25.854Z,45.31
2018-11-07T13:10:09.589Z,44.31
2018-11-07T13:12:52.797Z,44.88
2018-11-07T13:15:34.392Z,43.61
2018-11-07T13:18:16.661Z,46.08
2018-11-07T13:20:58.953Z,45.00
2018-11-07T13:23:41.121Z,44.43
2018-11-07T13:26:23.253Z,44.96
2018-11-07T13:29:05.484Z,44.77
2018-11-07T13:31:47.785Z,44.47
2018-11-07T13:34:29.555Z,45.48
2018-11-07T13:37:12.016Z,44.37
2018-11-07T13:39:54.416Z,44.58
2018-11-07T13:42:36.771Z,45.60
2018-11-07T13:45:19.493Z,45.75
2018-11-07T13:48:03.140Z,43.29
2018-11-07T13:50:45.693Z,45.39
2018-11-07T13:53:27.817Z,45.10
2018-11-07T13:56:10.557Z,42.16
2018-11-07T13:58:55.088Z,44.83
2018-11-07T14:01:36.700Z,43.76
2018-11-07T14:04:18.861Z,45.21
2018-11-07T14:07:00.892Z,46.89
2018-11-07T14:09:43.316Z,46.03
2018-11-07T14:12:24.389Z,47.29
2018-11-07T14:15:08.497Z,47.40
2018-11-07T14:17:49.937Z,48.46
2018-11-07T14:20:32.013Z,48.45
2018-11-07T14:23:14.036Z,48.53
2018-11-07T14:25:56.125Z,46.50
2018-11-07T14:28:38.786Z,47.62
2018-11-07T14:31:21.561Z,45.76
2018-11-07T14:34:03.766Z,47.16
2018-11-07T14:36:47.444Z,48.42
2018-11-07T14:39:29.492Z,49.29
2018-11-07T14:42:15.205Z,49.53
2018-11-07T14:44:57.301Z,49.20
2018-11-07T14:47:39.184Z,49.04
2018-11-07T14:50:21.555Z,49.30
2018-11-07T14:53:03.791Z,50.12
2018-11-07T14:55:46.545Z,51.88
2018-11-07T14:58:28.810Z,51.58
2018-11-07T15:01:10.195Z,52.13
2018-11-07T15:03:53.217Z,52.88
2018-11-07T15:06:35.606Z,52.57
2018-11-07T15:09:18.235Z,52.66
2018-11-07T15:12:00.212Z,52.71
2018-11-07T15:14:42.112Z,52.65
2018-11-07T15:17:24.589Z,52.40
2018-11-07T15:20:07.974Z,53.88
2018-11-07T15:22:49.538Z,53.72
2018-11-07T15:25:31.550Z,54.04
2018-11-07T15:28:13.242Z,54.77
2018-11-07T15:30:54.936Z,55.21
2018-11-07T15:33:37.772Z,54.38
2018-11-07T15:36:19.640Z,55.39
2018-11-07T15:39:01.125Z,56.06
2018-11-07T15:41:43.448Z,56.39
2018-11-07T15:44:26.157Z,57.13
2018-11-07T15:47:07.929Z,57.08
2018-11-07T15:49:54.976Z,56.55
2018-11-07T15:52:36.545Z,57.09
2018-11-07T15:55:18.317Z,57.67
2018-11-07T15:58:00.392Z,57.61
2018-11-07T16:00:44.365Z,57.55
2018-11-07T16:03:31.732Z,56.96
2018-11-07T16:06:13.700Z,58.38
2018-11-07T16:08:57.809Z,57.52
2018-11-07T16:11:40.369Z,57.82
2018-11-07T16:14:23.089Z,58.22
2018-11-07T16:17:04.987Z,57.72
2018-11-07T16:19:47.201Z,58.14
2018-11-07T16:22:30.095Z,57.87
2018-11-07T16:25:12.405Z,57.08
2018-11-07T16:27:54.998Z,57.98
2018-11-07T16:30:37.328Z,57.42
2018-11-07T16:33:19.941Z,57.95
2018-11-07T16:36:10.384Z,56.97
2018-11-07T16:39:06.526Z,57.11
2018-11-07T16:41:56.711Z,57.10
2018-11-07T16:44:44.290Z,58.25
2018-11-07T16:47:34.662Z,58.65
2018-11-07T16:50:26.622Z,59.37
2018-11-07T16:53:16.046Z,57.50
2018-11-07T16:56:06.888Z,58.15
2018-11-07T16:58:56.224Z,57.66
2018-11-07T17:01:46.230Z,57.20
2018-11-07T17:04:35.583Z,57.79
2018-11-07T17:07:18.500Z,57.00
2018-11-07T17:10:08.898Z,57.98
2018-11-07T17:12:58.846Z,58.19
2018-11-07T17:15:48.387Z,59.24
2018-11-07T17:18:37.612Z,60.06
2018-11-07T17:21:19.384Z,59.57
2018-11-07T17:24:01.938Z,59.73
2018-11-07T17:26:44.757Z,60.02
2018-11-07T17:29:27.044Z,60.31
2018-11-07T17:32:09.264Z,60.71
2018-11-07T17:34:52.282Z,61.55
2018-11-07T17:37:34.099Z,61.88
2018-11-07T17:40:20.602Z,62.43
2018-11-07T17:43:02.997Z,62.22
2018-11-07T17:45:44.565Z,62.78
2018-11-07T17:48:26.906Z,63.38
2018-11-07T17:51:08.766Z,63.43
2018-11-07T17:53:51.221Z,63.11
2018-11-07T17:56:34.214Z,63.36
2018-11-07T17:59:16.117Z,63.39
2018-11-07T18:01:57.801Z,63.09
2018-11-07T18:05:00.350Z,63.38
2018-11-07T18:07:53.257Z,63.46
2018-11-07T18:10:35.367Z,63.40
2018-11-07T18:13:17.944Z,62.74
2018-11-07T18:16:00.569Z,63.50
2018-11-07T18:18:43.377Z,63.73
2018-11-07T18:21:25.717Z,63.09
2018-11-07T18:24:07.711Z,64.83
2018-11-07T18:26:49.085Z,64.59
2018-11-07T18:29:30.888Z,66.83
2018-11-07T18:33:15.861Z,67.98
2018-11-07T18:35:57.329Z,70.02
2018-11-07T18:38:38.789Z,70.30
2018-11-07T18:41:20.692Z,70.13
2018-11-07T18:44:03.886Z,72.17
2018-11-07T18:46:46.052Z,71.55
2018-11-07T18:49:28.018Z,70.68
2018-11-07T18:52:10.108Z,72.23
2018-11-07T18:54:52.212Z,71.68
2018-11-07T18:57:34.966Z,71.87
2018-11-07T19:00:18.296Z,72.31
2018-11-07T19:03:00.680Z,73.20
2018-11-07T19:05:42.836Z,72.52
2018-11-07T19:08:24.661Z,75.00
2018-11-07T19:11:06.888Z,73.85
2018-11-07T19:13:48.568Z,74.15
2018-11-07T19:16:31.042Z,76.05
2018-11-07T19:19:12.637Z,76.06
2018-11-07T19:21:54.985Z,75.68
2018-11-07T19:24:36.353Z,76.15
2018-11-07T19:27:17.874Z,76.37
2018-11-07T19:29:59.550Z,76.18
2018-11-07T19:32:43.351Z,77.14
2018-11-07T19:35:25.485Z,76.01
2018-11-07T19:38:08.085Z,77.08
2018-11-07T19:40:50.546Z,76.07
2018-11-07T19:43:32.998Z,77.52
2018-11-07T19:46:15.434Z,78.74
2018-11-07T19:48:59.482Z,78.21
2018-11-07T19:51:41.002Z,78.62
2018-11-07T19:54:24.629Z,79.07
2018-11-07T19:57:07.201Z,78.74
2018-11-07T19:59:49.392Z,78.86
2018-11-07T20:02:31.313Z,78.88
2018-11-07T20:05:13.633Z,78.73
2018-11-07T20:07:56.200Z,78.40
2018-11-07T20:10:38.130Z,79.01
2018-11-07T20:13:20.193Z,78.27
2018-11-07T20:16:01.784Z,77.90
2018-11-07T20:18:44.716Z,77.34
2018-11-07T20:21:27.087Z,76.24
2018-11-07T20:24:09.528Z,77.26
2018-11-07T20:26:52.632Z,77.49
2018-11-07T20:29:35.643Z,76.68
2018-11-07T20:32:20.029Z,77.93
2018-11-07T20:35:02.745Z,76.20
2018-11-07T20:37:45.482Z,77.74
2018-11-07T20:40:27.366Z,77.49
2018-11-07T20:43:09.063Z,76.51
2018-11-07T20:45:51.379Z,77.34
2018-11-07T20:48:33.957Z,76.34
2018-11-07T20:51:16.543Z,76.15
2018-11-07T20:53:59.060Z,76.80
2018-11-07T20:56:41.819Z,76.66
2018-11-07T20:59:24.094Z,76.72
2018-11-07T21:02:06.201Z,77.42
2018-11-07T21:04:48.093Z,78.24
2018-11-07T21:07:33.413Z,78.00
2018-11-07T21:10:19.512Z,77.17
2018-11-07T21:13:01.489Z,77.82
2018-11-07T21:15:44.474Z,78.15
2018-11-07T21:18:26.410Z,77.75
2018-11-07T21:21:08.925Z,79.34
2018-11-07T21:23:52.224Z,78.46
2018-11-07T21:26:35.206Z,78.47
2018-11-07T21:29:17.671Z,78.65
2018-11-07T21:32:00.081Z,79.66
2018-11-07T21:34:42.891Z,78.65
2018-11-07T21:37:25.001Z,79.96
2018-11-07T21:40:08.665Z,77.79
2018-11-07T21:42:51.428Z,77.61
2018-11-07T21:45:32.936Z,78.10
2018-11-07T21:48:15.108Z,78.25
2018-11-07T21:50:57.316Z,78.21
2018-11-07T21:53:38.581Z,77.78
2018-11-07T21:56:20.482Z,79.06
2018-11-07T21:59:02.497Z,78.51
2018-11-07T22:01:44.767Z,78.21
2018-11-07T22:04:27.098Z,77.87
2018-11-07T22:07:08.399Z,78.31
2018-11-07T22:09:50.308Z,78.17
2018-11-07T22:12:32.487Z,78.94
2018-11-07T22:15:15.425Z,78.43
2018-11-07T22:17:57.508Z,78.57
2018-11-07T22:20:39.600Z,77.76
2018-11-07T22:23:21.485Z,77.81
2018-11-07T22:26:03.646Z,77.76
2018-11-07T22:28:45.461Z,77.38
2018-11-07T22:31:28.054Z,77.18
2018-11-07T22:34:10.626Z,76.70
2018-11-07T22:36:52.926Z,76.49
2018-11-07T22:39:35.535Z,78.33
2018-11-07T22:42:17.554Z,77.89
2018-11-07T22:44:59.001Z,77.81
2018-11-07T22:47:40.593Z,77.19
2018-11-07T22:50:23.115Z,76.86
2018-11-07T22:53:05.248Z,77.77
2018-11-07T22:55:47.180Z,77.49
2018-11-07T22:58:28.392Z,76.34
2018-11-07T23:01:16.560Z,77.21
2018-11-07T23:03:58.423Z,77.63
2018-11-07T23:06:40.520Z,76.72
2018-11-07T23:09:22.489Z,76.73
2018-11-07T23:12:04.243Z,77.74
2018-11-07T23:14:47.052Z,78.21
2018-11-07T23:17:29.336Z,77.66
2018-11-07T23:20:11.571Z,77.21
2018-11-07T23:22:53.345Z,76.50
2018-11-07T23:25:36.080Z,77.54
2018-11-07T23:28:17.998Z,77.62
2018-11-07T23:31:00.073Z,77.21
2018-11-07T23:33:42.052Z,78.36
2018-11-07T23:36:24.971Z,77.92
2018-11-07T23:42:52.439Z,77.92
2018-11-07T23:45:34.756Z,78.42
2018-11-07T23:48:17.133Z,78.68
2018-11-07T23:51:00.863Z,78.43
2018-11-07T23:53:43.121Z,79.37
2018-11-07T23:56:25.508Z,79.25
2018-11-07T23:59:08.212Z,79.73
